sensor_id;sensor_type;location;lat;lon;timestamp;pressure;altitude;pressure_sealevel;temperature;humidity
59513;BME280;45330;51.634;5.562;2022-12-13T00:00:09;101207.03;;;-7.23;100.00
59513;BME280;45330;51.634;5.562;2022-12-13T00:02:40;101206.16;;;-7.24;100.00
59513;BME280;45330;51.634;5.562;2022-12-13T00:05:06;101171.34;;;-7.39;100.00
59513;BME280;45330;51.634;5.562;2022-12-13T00:07:33;101173.06;;;-7.38;100.00
59513;BME280;45330;51.634;5.562;2022-12-13T00:09:58;101167.91;;;-7.40;100.00
59513;BME280;45330;51.634;5.562;2022-12-13T00:12:24;101196.72;;;-7.26;100.00
59513;BME280;45330;51.634;5.562;2022-12-13T00:14:49;101172.97;;;-7.40;100.00
59513;BME280;45330;51.634;5.562;2022-12-13T00:17:14;101196.72;;;-7.26;100.00
59513;BME280;45330;51.634;5.562;2022-12-13T00:19:40;101182.84;;;-7.31;100.00
59513;BME280;45330;51.634;5.562;2022-12-13T00:22:05;101193.31;;;-7.27;100.00
59513;BME280;45330;51.634;5.562;2022-12-13T00:24:31;101208.38;;;-7.28;100.00
59513;BME280;45330;51.634;5.562;2022-12-13T00:26:56;101191.66;;;-7.38;100.00
59513;BME280;45330;51.634;5.562;2022-12-13T00:29:21;101174.19;;;-7.47;100.00
59513;BME280;45330;51.634;5.562;2022-12-13T00:31:47;101193.41;;;-7.37;100.00
59513;BME280;45330;51.634;5.562;2022-12-13T00:34:12;101194.19;;;-7.38;100.00
59513;BME280;45330;51.634;5.562;2022-12-13T00:36:37;101193.09;;;-7.42;100.00
59513;BME280;45330;51.634;5.562;2022-12-13T00:39:03;101162.31;;;-7.60;100.00
59513;BME280;45330;51.634;5.562;2022-12-13T00:41:34;101190.44;;;-7.43;100.00
59513;BME280;45330;51.634;5.562;2022-12-13T00:44:01;101183.63;;;-7.44;100.00
59513;BME280;45330;51.634;5.562;2022-12-13T00:46:27;101168.47;;;-7.56;100.00
59513;BME280;45330;51.634;5.562;2022-12-13T00:48:55;101187.94;;;-7.43;100.00
59513;BME280;45330;51.634;5.562;2022-12-13T00:51:21;101189.59;;;-7.44;100.00
59513;BME280;45330;51.634;5.562;2022-12-13T00:53:47;101156.28;;;-7.62;100.00
59513;BME280;45330;51.634;5.562;2022-12-13T00:56:14;101180.88;;;-7.47;100.00
59513;BME280;45330;51.634;5.562;2022-12-13T00:58:40;101188.38;;;-7.49;100.00
59513;BME280;45330;51.634;5.562;2022-12-13T01:01:15;101184.63;;;-7.54;100.00
59513;BME280;45330;51.634;5.562;2022-12-13T01:03:41;101159.25;;;-7.67;100.00
59513;BME280;45330;51.634;5.562;2022-12-13T01:06:28;101182.78;;;-7.56;100.00
59513;BME280;45330;51.634;5.562;2022-12-13T01:08:55;101189.47;;;-7.57;100.00
59513;BME280;45330;51.634;5.562;2022-12-13T01:11:20;101187.69;;;-7.58;100.00
59513;BME280;45330;51.634;5.562;2022-12-13T01:13:46;101174.19;;;-7.70;100.00
59513;BME280;45330;51.634;5.562;2022-12-13T01:16:12;101177.56;;;-7.58;100.00
59513;BME280;45330;51.634;5.562;2022-12-13T01:18:38;101182.53;;;-7.60;100.00
59513;BME280;45330;51.634;5.562;2022-12-13T01:21:27;101154.84;;;-7.70;100.00
59513;BME280;45330;51.634;5.562;2022-12-13T01:23:51;101186.59;;;-7.50;100.00
59513;BME280;45330;51.634;5.562;2022-12-13T01:26:19;101161.66;;;-7.57;100.00
59513;BME280;45330;51.634;5.562;2022-12-13T01:28:46;101181.66;;;-7.48;100.00
59513;BME280;45330;51.634;5.562;2022-12-13T01:31:14;101153.44;;;-7.66;100.00
59513;BME280;45330;51.634;5.562;2022-12-13T01:33:40;101152.31;;;-7.70;100.00
59513;BME280;45330;51.634;5.562;2022-12-13T01:36:15;101179.81;;;-7.51;100.00
59513;BME280;45330;51.634;5.562;2022-12-13T01:38:41;101148.50;;;-7.65;100.00
59513;BME280;45330;51.634;5.562;2022-12-13T01:41:07;101182.34;;;-7.51;100.00
59513;BME280;45330;51.634;5.562;2022-12-13T01:46:02;101160.44;;;-7.74;100.00
59513;BME280;45330;51.634;5.562;2022-12-13T01:48:31;101175.38;;;-7.65;100.00
59513;BME280;45330;51.634;5.562;2022-12-13T01:51:01;101185.94;;;-7.59;100.00
59513;BME280;45330;51.634;5.562;2022-12-13T01:53:32;101177.38;;;-7.61;100.00
59513;BME280;45330;51.634;5.562;2022-12-13T01:56:04;101176.03;;;-7.68;100.00
59513;BME280;45330;51.634;5.562;2022-12-13T01:58:30;101187.16;;;-7.66;100.00
59513;BME280;45330;51.634;5.562;2022-12-13T02:00:57;101157.13;;;-7.85;100.00
59513;BME280;45330;51.634;5.562;2022-12-13T02:03:24;101153.41;;;-7.90;100.00
59513;BME280;45330;51.634;5.562;2022-12-13T02:06:06;101184.84;;;-7.74;100.00
59513;BME280;45330;51.634;5.562;2022-12-13T02:08:33;101157.13;;;-7.97;100.00
59513;BME280;45330;51.634;5.562;2022-12-13T02:11:00;101160.97;;;-7.90;100.00
59513;BME280;45330;51.634;5.562;2022-12-13T02:13:26;101154.06;;;-7.93;100.00
59513;BME280;45330;51.634;5.562;2022-12-13T02:21:24;101181.31;;;-7.77;100.00
59513;BME280;45330;51.634;5.562;2022-12-13T02:26:55;101164.81;;;-7.95;100.00
59513;BME280;45330;51.634;5.562;2022-12-13T02:32:16;101180.88;;;-7.83;100.00
59513;BME280;45330;51.634;5.562;2022-12-13T02:39:43;101175.38;;;-7.77;100.00
59513;BME280;45330;51.634;5.562;2022-12-13T02:42:20;101161.53;;;-7.82;100.00
59513;BME280;45330;51.634;5.562;2022-12-13T02:45:18;101179.78;;;-7.74;100.00
59513;BME280;45330;51.634;5.562;2022-12-13T02:47:45;101155.06;;;-7.79;100.00
59513;BME280;45330;51.634;5.562;2022-12-13T02:50:13;101152.53;;;-7.79;100.00
59513;BME280;45330;51.634;5.562;2022-12-13T02:52:40;101166.72;;;-7.69;100.00
59513;BME280;45330;51.634;5.562;2022-12-13T02:55:11;101165.06;;;-7.68;100.00
59513;BME280;45330;51.634;5.562;2022-12-13T02:57:42;101137.16;;;-7.82;100.00
59513;BME280;45330;51.634;5.562;2022-12-13T03:00:12;101128.03;;;-7.80;100.00
59513;BME280;45330;51.634;5.562;2022-12-13T03:02:49;101156.28;;;-7.62;100.00
59513;BME280;45330;51.634;5.562;2022-12-13T03:05:23;101153.84;;;-7.60;100.00
59513;BME280;45330;51.634;5.562;2022-12-13T03:11:09;101147.72;;;-7.52;100.00
59513;BME280;45330;51.634;5.562;2022-12-13T03:13:44;101154.53;;;-7.51;100.00
59513;BME280;45330;51.634;5.562;2022-12-13T03:16:28;101166.16;;;-7.53;100.00
59513;BME280;45330;51.634;5.562;2022-12-13T03:18:59;101142.78;;;-7.62;100.00
59513;BME280;45330;51.634;5.562;2022-12-13T03:21:25;101154.41;;;-7.52;100.00
59513;BME280;45330;51.634;5.562;2022-12-13T03:23:51;101143.31;;;-7.54;100.00
59513;BME280;45330;51.634;5.562;2022-12-13T03:26:21;101123.56;;;-7.72;100.00
59513;BME280;45330;51.634;5.562;2022-12-13T03:28:48;101149.13;;;-7.55;100.00
59513;BME280;45330;51.634;5.562;2022-12-13T03:31:13;101121.91;;;-7.71;100.00
59513;BME280;45330;51.634;5.562;2022-12-13T03:33:39;101155.09;;;-7.55;100.00
59513;BME280;45330;51.634;5.562;2022-12-13T03:36:04;101132.44;;;-7.65;100.00
59513;BME280;45330;51.634;5.562;2022-12-13T03:38:30;101154.28;;;-7.54;100.00
59513;BME280;45330;51.634;5.562;2022-12-13T03:41:01;101160.34;;;-7.52;100.00
59513;BME280;45330;51.634;5.562;2022-12-13T03:43:28;101130.91;;;-7.63;100.00
59513;BME280;45330;51.634;5.562;2022-12-13T03:45:53;101142.88;;;-7.61;100.00
59513;BME280;45330;51.634;5.562;2022-12-13T03:48:19;101154.06;;;-7.57;100.00
59513;BME280;45330;51.634;5.562;2022-12-13T03:50:45;101145.63;;;-7.57;100.00
59513;BME280;45330;51.634;5.562;2022-12-13T03:53:10;101154.06;;;-7.57;100.00
59513;BME280;45330;51.634;5.562;2022-12-13T03:55:36;101156.38;;;-7.60;100.00
59513;BME280;45330;51.634;5.562;2022-12-13T03:58:01;101119.25;;;-7.73;100.00
59513;BME280;45330;51.634;5.562;2022-12-13T04:00:26;101126.63;;;-7.76;100.00
59513;BME280;45330;51.634;5.562;2022-12-13T04:02:52;101117.38;;;-7.76;100.00
59513;BME280;45330;51.634;5.562;2022-12-13T04:05:17;101140.56;;;-7.57;100.00
59513;BME280;45330;51.634;5.562;2022-12-13T04:07:43;101114.31;;;-7.71;100.00
59513;BME280;45330;51.634;5.562;2022-12-13T04:10:09;101150.34;;;-7.50;100.00
59513;BME280;45330;51.634;5.562;2022-12-13T04:12:34;101110.56;;;-7.77;100.00
59513;BME280;45330;51.634;5.562;2022-12-13T04:15:18;101123.09;;;-7.78;100.00
59513;BME280;45330;51.634;5.562;2022-12-13T04:17:43;101131.78;;;-7.74;100.00
59513;BME280;45330;51.634;5.562;2022-12-13T04:20:09;101120.88;;;-7.73;100.00
59513;BME280;45330;51.634;5.562;2022-12-13T04:22:34;101143.97;;;-7.57;100.00
59513;BME280;45330;51.634;5.562;2022-12-13T04:25:00;101124.63;;;-7.68;100.00
59513;BME280;45330;51.634;5.562;2022-12-13T04:27:25;101130.91;;;-7.63;100.00
59513;BME280;45330;51.634;5.562;2022-12-13T04:29:50;101101.13;;;-7.79;100.00
59513;BME280;45330;51.634;5.562;2022-12-13T04:32:16;101133.44;;;-7.63;100.00
59513;BME280;45330;51.634;5.562;2022-12-13T04:34:41;101113.56;;;-7.70;100.00
59513;BME280;45330;51.634;5.562;2022-12-13T04:37:07;101124.53;;;-7.70;100.00
59513;BME280;45330;51.634;5.562;2022-12-13T04:39:33;101127.81;;;-7.71;100.00
59513;BME280;45330;51.634;5.562;2022-12-13T04:41:59;101117.59;;;-7.72;100.00
59513;BME280;45330;51.634;5.562;2022-12-13T04:44:24;101101.91;;;-7.80;100.00
59513;BME280;45330;51.634;5.562;2022-12-13T04:46:49;101127.16;;;-7.68;100.00
59513;BME280;45330;51.634;5.562;2022-12-13T04:49:15;101095.63;;;-7.85;100.00
59513;BME280;45330;51.634;5.562;2022-12-13T04:51:40;101083.22;;;-7.94;100.00
59513;BME280;45330;51.634;5.562;2022-12-13T04:54:06;101119.78;;;-7.65;100.00
59513;BME280;45330;51.634;5.562;2022-12-13T04:56:32;101092.78;;;-7.78;100.00
59513;BME280;45330;51.634;5.562;2022-12-13T04:58:57;101131.22;;;-7.59;100.00
59513;BME280;45330;51.634;5.562;2022-12-13T05:01:23;101130.69;;;-7.54;100.00
59513;BME280;45330;51.634;5.562;2022-12-13T05:03:48;101128.25;;;-7.53;100.00
59513;BME280;45330;51.634;5.562;2022-12-13T05:06:14;101113.97;;;-7.64;100.00
59513;BME280;45330;51.634;5.562;2022-12-13T05:08:39;101091.00;;;-7.79;100.00
59513;BME280;45330;51.634;5.562;2022-12-13T05:11:06;101121.78;;;-7.61;100.00
59513;BME280;45330;51.634;5.562;2022-12-13T05:13:33;101127.28;;;-7.55;100.00
59513;BME280;45330;51.634;5.562;2022-12-13T05:16:04;101093.97;;;-7.61;100.00
59513;BME280;45330;51.634;5.562;2022-12-13T05:18:31;101121.69;;;-7.51;100.00
59513;BME280;45330;51.634;5.562;2022-12-13T05:21:01;101113.97;;;-7.52;100.00
59513;BME280;45330;51.634;5.562;2022-12-13T05:23:27;101117.63;;;-7.61;100.00
59513;BME280;45330;51.634;5.562;2022-12-13T05:25:52;101104.88;;;-7.74;100.00
59513;BME280;45330;51.634;5.562;2022-12-13T05:28:18;101107.59;;;-7.71;100.00
59513;BME280;45330;51.634;5.562;2022-12-13T05:30:43;101108.72;;;-7.67;100.00
59513;BME280;45330;51.634;5.562;2022-12-13T05:33:09;101110.59;;;-7.65;100.00
59513;BME280;45330;51.634;5.562;2022-12-13T05:35:35;101112.66;;;-7.59;100.00
59513;BME280;45330;51.634;5.562;2022-12-13T05:38:00;101080.25;;;-7.77;100.00
59513;BME280;45330;51.634;5.562;2022-12-13T05:40:27;101079.06;;;-7.82;100.00
59513;BME280;45330;51.634;5.562;2022-12-13T05:42:54;101098.28;;;-7.72;100.00
59513;BME280;45330;51.634;5.562;2022-12-13T05:45:19;101091.88;;;-7.67;100.00
59513;BME280;45330;51.634;5.562;2022-12-13T05:47:46;101084.31;;;-7.67;100.00
59513;BME280;45330;51.634;5.562;2022-12-13T05:50:12;101086.41;;;-7.61;100.00
59513;BME280;45330;51.634;5.562;2022-12-13T05:52:38;101087.94;;;-7.63;100.00
59513;BME280;45330;51.634;5.562;2022-12-13T05:55:04;101091.25;;;-7.64;100.00
59513;BME280;45330;51.634;5.562;2022-12-13T05:57:29;101087.50;;;-7.57;100.00
59513;BME280;45330;51.634;5.562;2022-12-13T05:59:55;101095.19;;;-7.56;100.00
59513;BME280;45330;51.634;5.562;2022-12-13T06:02:20;101091.34;;;-7.63;100.00
59513;BME280;45330;51.634;5.562;2022-12-13T06:04:46;101087.59;;;-7.68;100.00
59513;BME280;45330;51.634;5.562;2022-12-13T06:07:12;101077.50;;;-7.68;100.00
59513;BME280;45330;51.634;5.562;2022-12-13T06:09:37;101069.28;;;-7.77;100.00
59513;BME280;45330;51.634;5.562;2022-12-13T06:12:03;101091.03;;;-7.67;100.00
59513;BME280;45330;51.634;5.562;2022-12-13T06:14:28;101092.34;;;-7.72;100.00
59513;BME280;45330;51.634;5.562;2022-12-13T06:16:54;101093.69;;;-7.78;100.00
59513;BME280;45330;51.634;5.562;2022-12-13T06:19:22;101095.31;;;-7.78;100.00
59513;BME280;45330;51.634;5.562;2022-12-13T06:21:49;101091.16;;;-7.78;100.00
59513;BME280;45330;51.634;5.562;2022-12-13T06:24:16;101062.72;;;-7.99;100.00
59513;BME280;45330;51.634;5.562;2022-12-13T06:26:42;101066.97;;;-7.98;100.00
59513;BME280;45330;51.634;5.562;2022-12-13T06:29:07;101066.44;;;-8.05;100.00
59513;BME280;45330;51.634;5.562;2022-12-13T06:31:33;101098.50;;;-7.93;100.00
59513;BME280;45330;51.634;5.562;2022-12-13T06:34:02;101093.00;;;-7.99;100.00
59513;BME280;45330;51.634;5.562;2022-12-13T06:36:28;101084.09;;;-8.05;100.00
59513;BME280;45330;51.634;5.562;2022-12-13T06:38:53;101090.03;;;-8.05;100.00
59513;BME280;45330;51.634;5.562;2022-12-13T06:41:19;101101.00;;;-8.04;100.00
59513;BME280;45330;51.634;5.562;2022-12-13T06:43:45;101072.25;;;-8.18;100.00
59513;BME280;45330;51.634;5.562;2022-12-13T06:46:12;101076.38;;;-8.19;100.00
59513;BME280;45330;51.634;5.562;2022-12-13T06:48:38;101098.91;;;-8.10;100.00
59513;BME280;45330;51.634;5.562;2022-12-13T06:51:07;101091.91;;;-8.14;100.00
59513;BME280;45330;51.634;5.562;2022-12-13T06:53:35;101075.84;;;-8.27;100.00
59513;BME280;45330;51.634;5.562;2022-12-13T06:56:05;101069.03;;;-8.28;100.00
59513;BME280;45330;51.634;5.562;2022-12-13T06:58:32;101089.38;;;-8.14;100.00
59513;BME280;45330;51.634;5.562;2022-12-13T07:01:13;101073.75;;;-8.20;100.00
59513;BME280;45330;51.634;5.562;2022-12-13T07:03:39;101093.63;;;-8.13;100.00
59513;BME280;45330;51.634;5.562;2022-12-13T07:06:07;101076.72;;;-8.26;100.00
59513;BME280;45330;51.634;5.562;2022-12-13T07:08:35;101102.66;;;-8.17;100.00
59513;BME280;45330;51.634;5.562;2022-12-13T07:11:01;101100.00;;;-8.18;100.00
59513;BME280;45330;51.634;5.562;2022-12-13T07:13:27;101082.09;;;-8.33;100.00
59513;BME280;45330;51.634;5.562;2022-12-13T07:15:52;101099.75;;;-8.21;100.00
59513;BME280;45330;51.634;5.562;2022-12-13T07:18:18;101077.78;;;-8.34;100.00
59513;BME280;45330;51.634;5.562;2022-12-13T07:20:44;101089.44;;;-8.24;100.00
59513;BME280;45330;51.634;5.562;2022-12-13T07:23:10;101070.66;;;-8.40;100.00
59513;BME280;45330;51.634;5.562;2022-12-13T07:25:36;101086.59;;;-8.29;100.00
59513;BME280;45330;51.634;5.562;2022-12-13T07:28:04;101082.94;;;-8.33;100.00
59513;BME280;45330;51.634;5.562;2022-12-13T07:30:34;101091.84;;;-8.26;100.00
59513;BME280;45330;51.634;5.562;2022-12-13T07:33:01;101082.50;;;-8.39;100.00
59513;BME280;45330;51.634;5.562;2022-12-13T07:35:28;101108.88;;;-8.23;100.00
59513;BME280;45330;51.634;5.562;2022-12-13T07:37:53;101087.03;;;-8.35;100.00
59513;BME280;45330;51.634;5.562;2022-12-13T07:40:18;101110.53;;;-8.24;100.00
59513;BME280;45330;51.634;5.562;2022-12-13T07:42:51;101099.97;;;-8.30;100.00
59513;BME280;45330;51.634;5.562;2022-12-13T07:45:17;101107.75;;;-8.27;100.00
59513;BME280;45330;51.634;5.562;2022-12-13T07:47:43;101099.13;;;-8.19;100.00
59513;BME280;45330;51.634;5.562;2022-12-13T07:50:09;101079.88;;;-8.29;100.00
59513;BME280;45330;51.634;5.562;2022-12-13T07:52:34;101113.06;;;-8.12;100.00
59513;BME280;45330;51.634;5.562;2022-12-13T07:54:59;101113.19;;;-8.11;100.00
59513;BME280;45330;51.634;5.562;2022-12-13T07:57:26;101116.13;;;-8.04;100.00
59513;BME280;45330;51.634;5.562;2022-12-13T07:59:51;101118.25;;;-7.99;100.00
59513;BME280;45330;51.634;5.562;2022-12-13T08:02:17;101094.97;;;-8.06;100.00
59513;BME280;45330;51.634;5.562;2022-12-13T08:04:42;101089.16;;;-8.05;100.00
59513;BME280;45330;51.634;5.562;2022-12-13T08:07:10;101092.88;;;-8.00;100.00
59513;BME280;45330;51.634;5.562;2022-12-13T08:09:36;101085.06;;;-8.03;100.00
59513;BME280;45330;51.634;5.562;2022-12-13T08:12:02;101121.91;;;-7.71;100.00
59513;BME280;45330;51.634;5.562;2022-12-13T08:14:27;101109.25;;;-7.71;100.00
59513;BME280;45330;51.634;5.562;2022-12-13T08:16:53;101081.34;;;-7.85;100.00
59513;BME280;45330;51.634;5.562;2022-12-13T08:19:18;101088.84;;;-7.74;100.00
59513;BME280;45330;51.634;5.562;2022-12-13T08:21:44;101094.31;;;-7.68;100.00
59513;BME280;45330;51.634;5.562;2022-12-13T08:24:09;101115.41;;;-7.56;100.00
59513;BME280;45330;51.634;5.562;2022-12-13T08:26:35;101104.09;;;-7.61;100.00
59513;BME280;45330;51.634;5.562;2022-12-13T08:29:00;101119.16;;;-7.51;100.00
59513;BME280;45330;51.634;5.562;2022-12-13T08:31:26;101112.53;;;-7.49;100.00
59513;BME280;45330;51.634;5.562;2022-12-13T08:33:51;101098.47;;;-7.57;100.00
59513;BME280;45330;51.634;5.562;2022-12-13T08:36:17;101120.22;;;-7.35;100.00
59513;BME280;45330;51.634;5.562;2022-12-13T08:38:43;101117.56;;;-7.37;100.00
59513;BME280;45330;51.634;5.562;2022-12-13T08:41:10;101094.28;;;-7.45;100.00
59513;BME280;45330;51.634;5.562;2022-12-13T08:43:35;101119.53;;;-7.33;100.00
59513;BME280;45330;51.634;5.562;2022-12-13T08:46:01;101105.72;;;-7.38;100.00
59513;BME280;45330;51.634;5.562;2022-12-13T08:48:27;101120.31;;;-7.22;100.00
59513;BME280;45330;51.634;5.562;2022-12-13T08:50:52;101133.59;;;-7.13;100.00
59513;BME280;45330;51.634;5.562;2022-12-13T08:53:18;101134.13;;;-7.05;100.00
59513;BME280;45330;51.634;5.562;2022-12-13T08:55:44;101140.38;;;-7.00;100.00
59513;BME280;45330;51.634;5.562;2022-12-13T08:58:09;101110.75;;;-7.14;100.00
59513;BME280;45330;51.634;5.562;2022-12-13T09:00:35;101121.38;;;-7.07;100.00
59513;BME280;45330;51.634;5.562;2022-12-13T09:03:02;101136.38;;;-6.84;100.00
59513;BME280;45330;51.634;5.562;2022-12-13T09:05:27;101121.22;;;-6.84;100.00
59513;BME280;45330;51.634;5.562;2022-12-13T09:07:54;101118.97;;;-6.80;100.00
59513;BME280;45330;51.634;5.562;2022-12-13T09:10:20;101133.88;;;-6.59;100.00
59513;BME280;45330;51.634;5.562;2022-12-13T09:12:45;101136.44;;;-6.46;100.00
59513;BME280;45330;51.634;5.562;2022-12-13T09:15:10;101109.72;;;-6.54;100.00
59513;BME280;45330;51.634;5.562;2022-12-13T09:17:36;101122.44;;;-6.41;100.00
59513;BME280;45330;51.634;5.562;2022-12-13T09:20:02;101124.97;;;-6.41;100.00
59513;BME280;45330;51.634;5.562;2022-12-13T09:22:28;101130.19;;;-6.26;100.00
59513;BME280;45330;51.634;5.562;2022-12-13T09:24:53;101104.44;;;-6.32;100.00
59513;BME280;45330;51.634;5.562;2022-12-13T09:27:19;101133.13;;;-6.06;100.00
59513;BME280;45330;51.634;5.562;2022-12-13T09:29:45;101117.84;;;-6.08;100.00
59513;BME280;45330;51.634;5.562;2022-12-13T09:32:11;101135.47;;;-5.96;100.00
59513;BME280;45330;51.634;5.562;2022-12-13T09:34:36;101140.16;;;-5.89;100.00
59513;BME280;45330;51.634;5.562;2022-12-13T09:37:02;101139.69;;;-5.83;100.00
59513;BME280;45330;51.634;5.562;2022-12-13T09:39:28;101132.19;;;-5.81;100.00
59513;BME280;45330;51.634;5.562;2022-12-13T09:41:55;101137.75;;;-5.74;100.00
59513;BME280;45330;51.634;5.562;2022-12-13T09:44:24;101140.28;;;-5.60;100.00
59513;BME280;45330;51.634;5.562;2022-12-13T09:46:51;101145.94;;;-5.51;100.00
59513;BME280;45330;51.634;5.562;2022-12-13T09:49:34;101110.53;;;-5.63;100.00
59513;BME280;45330;51.634;5.562;2022-12-13T09:52:02;101143.59;;;-5.35;100.00
59513;BME280;45330;51.634;5.562;2022-12-13T09:54:27;101138.91;;;-5.28;100.00
59513;BME280;45330;51.634;5.562;2022-12-13T09:56:55;101109.75;;;-5.35;100.00
59513;BME280;45330;51.634;5.562;2022-12-13T09:59:29;101101.03;;;-5.25;100.00
59513;BME280;45330;51.634;5.562;2022-12-13T10:02:02;101093.88;;;-5.18;100.00
59513;BME280;45330;51.634;5.562;2022-12-13T10:04:31;101092.50;;;-4.99;100.00
59513;BME280;45330;51.634;5.562;2022-12-13T10:06:57;101111.28;;;-4.54;100.00
59513;BME280;45330;51.634;5.562;2022-12-13T10:09:23;101105.44;;;-4.23;100.00
59513;BME280;45330;51.634;5.562;2022-12-13T10:11:51;101105.88;;;-3.85;100.00
59513;BME280;45330;51.634;5.562;2022-12-13T10:14:38;101105.59;;;-3.75;100.00
59513;BME280;45330;51.634;5.562;2022-12-13T10:17:07;101074.09;;;-3.77;100.00
59513;BME280;45330;51.634;5.562;2022-12-13T10:19:37;101096.59;;;-3.53;100.00
59513;BME280;45330;51.634;5.562;2022-12-13T10:22:06;101102.91;;;-3.47;100.00
59513;BME280;45330;51.634;5.562;2022-12-13T10:24:57;101070.16;;;-3.72;100.00
59513;BME280;45330;51.634;5.562;2022-12-13T10:27:41;101095.06;;;-3.66;100.00
59513;BME280;45330;51.634;5.562;2022-12-13T10:30:15;101093.31;;;-3.67;100.00
59513;BME280;45330;51.634;5.562;2022-12-13T10:33:01;101081.47;;;-3.67;100.00
59513;BME280;45330;51.634;5.562;2022-12-13T10:35:35;101073.84;;;-3.67;100.00
59513;BME280;45330;51.634;5.562;2022-12-13T10:40:40;101057.44;;;-3.72;100.00
59513;BME280;45330;51.634;5.562;2022-12-13T10:43:20;101076.72;;;-3.60;100.00
59513;BME280;45330;51.634;5.562;2022-12-13T10:48:20;101067.69;;;-3.55;100.00
59513;BME280;45330;51.634;5.562;2022-12-13T10:50:58;101040.34;;;-3.74;100.00
59513;BME280;45330;51.634;5.562;2022-12-13T10:53:28;101056.13;;;-3.65;100.00
59513;BME280;45330;51.634;5.562;2022-12-13T10:55:55;101031.94;;;-3.73;100.00
59513;BME280;45330;51.634;5.562;2022-12-13T10:58:20;101034.81;;;-3.67;100.00
59513;BME280;45330;51.634;5.562;2022-12-13T11:00:46;101029.72;;;-3.67;100.00
59513;BME280;45330;51.634;5.562;2022-12-13T11:03:31;101029.00;;;-3.65;100.00
59513;BME280;45330;51.634;5.562;2022-12-13T11:06:11;101047.66;;;-3.49;100.00
59513;BME280;45330;51.634;5.562;2022-12-13T11:08:37;101010.59;;;-3.60;100.00
59513;BME280;45330;51.634;5.562;2022-12-13T11:11:05;101033.38;;;-3.47;100.00
59513;BME280;45330;51.634;5.562;2022-12-13T11:15:56;101033.16;;;-3.50;100.00
59513;BME280;45330;51.634;5.562;2022-12-13T11:18:23;101017.69;;;-3.55;100.00
59513;BME280;45330;51.634;5.562;2022-12-13T11:20:59;101003.75;;;-3.62;100.00
59513;BME280;45330;51.634;5.562;2022-12-13T11:23:28;101016.56;;;-3.43;100.00
59513;BME280;45330;51.634;5.562;2022-12-13T11:25:58;101031.94;;;-3.25;100.00
59513;BME280;45330;51.634;5.562;2022-12-13T11:37:27;101021.38;;;-2.84;100.00
59513;BME280;45330;51.634;5.562;2022-12-13T11:40:09;101027.63;;;-2.77;100.00
59513;BME280;45330;51.634;5.562;2022-12-13T11:43:10;101022.00;;;-2.71;100.00
59513;BME280;45330;51.634;5.562;2022-12-13T11:45:44;101025.78;;;-2.63;100.00
59513;BME280;45330;51.634;5.562;2022-12-13T11:50:48;100994.66;;;-2.58;100.00
59513;BME280;45330;51.634;5.562;2022-12-13T11:58:39;100997.03;;;-2.26;100.00
59513;BME280;45330;51.634;5.562;2022-12-13T12:01:12;100990.84;;;-2.31;100.00
59513;BME280;45330;51.634;5.562;2022-12-13T12:03:43;100997.13;;;-2.25;100.00
59513;BME280;45330;51.634;5.562;2022-12-13T12:06:20;100980.72;;;-2.30;100.00
59513;BME280;45330;51.634;5.562;2022-12-13T12:08:59;100976.50;;;-2.29;100.00
59513;BME280;45330;51.634;5.562;2022-12-13T12:11:30;100991.38;;;-2.20;100.00
59513;BME280;45330;51.634;5.562;2022-12-13T12:14:04;100954.22;;;-2.33;100.00
59513;BME280;45330;51.634;5.562;2022-12-13T12:16:38;100984.78;;;-2.15;100.00
59513;BME280;45330;51.634;5.562;2022-12-13T12:19:14;100973.72;;;-2.16;100.00
59513;BME280;45330;51.634;5.562;2022-12-13T12:21:54;100978.25;;;-2.10;100.00
59513;BME280;45330;51.634;5.562;2022-12-13T12:24:32;100978.91;;;-2.14;100.00
59513;BME280;45330;51.634;5.562;2022-12-13T12:59:28;100983.69;;;-2.38;100.00
59513;BME280;45330;51.634;5.562;2022-12-13T13:02:05;100980.44;;;-2.36;100.00
59513;BME280;45330;51.634;5.562;2022-12-13T13:04:45;100976.91;;;-2.38;100.00
59513;BME280;45330;51.634;5.562;2022-12-13T13:07:20;100975.84;;;-2.43;100.00
59513;BME280;45330;51.634;5.562;2022-12-13T13:09:50;100962.63;;;-2.52;100.00
59513;BME280;45330;51.634;5.562;2022-12-13T13:12:16;100914.50;;;-2.82;100.00
59513;BME280;45330;51.634;5.562;2022-12-13T13:14:42;100972.84;;;-2.34;100.00
59513;BME280;45330;51.634;5.562;2022-12-13T13:20:18;100961.28;;;-2.28;100.00
59513;BME280;45330;51.634;5.562;2022-12-13T13:22:44;100955.94;;;-2.32;100.00
59513;BME280;45330;51.634;5.562;2022-12-13T13:27:42;100953.56;;;-2.29;100.00
59513;BME280;45330;51.634;5.562;2022-12-13T13:30:23;100953.78;;;-2.25;100.00
59513;BME280;45330;51.634;5.562;2022-12-13T13:32:54;100953.00;;;-2.23;100.00
59513;BME280;45330;51.634;5.562;2022-12-13T13:37:56;100925.44;;;-2.31;100.00
59513;BME280;45330;51.634;5.562;2022-12-13T13:40:33;100952.47;;;-2.16;100.00
59513;BME280;45330;51.634;5.562;2022-12-13T14:26:58;100917.31;;;-2.42;100.00
59513;BME280;45330;51.634;5.562;2022-12-13T14:29:47;100916.34;;;-2.44;100.00
59513;BME280;45330;51.634;5.562;2022-12-13T14:32:25;100908.63;;;-2.45;100.00
59513;BME280;45330;51.634;5.562;2022-12-13T14:34:51;100870.97;;;-2.69;100.00
59513;BME280;45330;51.634;5.562;2022-12-13T14:37:32;100882.56;;;-2.58;100.00
59513;BME280;45330;51.634;5.562;2022-12-13T14:40:00;100862.56;;;-2.68;100.00
59513;BME280;45330;51.634;5.562;2022-12-13T14:42:31;100896.47;;;-2.51;100.00
59513;BME280;45330;51.634;5.562;2022-12-13T14:45:14;100890.28;;;-2.56;100.00
59513;BME280;45330;51.634;5.562;2022-12-13T14:47:45;100878.88;;;-2.64;100.00
59513;BME280;45330;51.634;5.562;2022-12-13T14:50:16;100883.97;;;-2.64;100.00
59513;BME280;45330;51.634;5.562;2022-12-13T14:52:45;100895.94;;;-2.62;100.00
59513;BME280;45330;51.634;5.562;2022-12-13T14:55:31;100880.09;;;-2.74;100.00
59513;BME280;45330;51.634;5.562;2022-12-13T14:57:59;100874.63;;;-2.82;100.00